GOTK

Kédougou Airport

Kédougou, Senegal
METAR GOTK 180800Z 22010KT 4000 -TSRA SCT005 FEW030CB BKN130 23/22 Q1012
Observed Flight Rules
Aug-18 @ 08:00 UTC (51 minutes ago) Instrument Flight Rules
Wind Visibility Clouds Conditions
220° at 10 knots 4,007 meters
  • Scattered at 500' AGL
  • Few at 3,000' AGL
  • Broken at 13,000' AGL
  • Light Thunderstorm
  • Light Rain
Temperatures Readings
Current 23°C / 73°F
Dewpoint 22°C / 72°F
Humidity 94%
Altimeter 29.88" Hg
Pressure 1012 hPa
Elevation 167
METAR GOTK 180800Z 22010KT 4000 -TSRA SCT005 FEW030CB BKN130 23/22 Q1012
Observed Flight Rules
Aug-18 @ 08:00 UTC
(51 minutes ago)
IFR
Wind Visibility
220° at 10 knots 4,007 meters
Clouds
  • Scattered at 500' AGL
  • Few at 3,000' AGL
  • Broken at 13,000' AGL
Conditions
  • Light Thunderstorm
  • Light Rain
Temperature Dewpoint
23°C / 73°F 22°C / 72°F
Humidity Altimeter Pressure
94% 29.88" Hg 1012 hPa